Terminal Aerodrome Forecast
Issued by NWS

Home | Current Version | Previous Version | Graphics & Text | Print | Product List | Glossary On
Versions: 1 2 3 4 5 6 7 8 9 10 11 12 13 14 15 16 17 18
000
FTUS43 KGRB 281700
TAFATW
TAF
KATW 281720Z 2818/2918 25004KT P6SM SCT120 BKN200
     FM290000 19004KT P6SM SCT250
     FM290700 VRB03KT 4SM BR SCT250
     FM291300 33007KT 5SM BR VCSH SCT025 BKN060
     FM291600 35010G18KT P6SM VCSH SCT011 OVC025
      TEMPO 2916/2918 5SM -SHRA BR BKN011=

USA.gov is the U.S. government's official web portal to all federal, state and local government web resources and services.